sensor_id;sensor_type;location;lat;lon;timestamp;temperature;humidity
33476;DHT22;19814;48.224;11.422;2023-04-03T00:00:53;3.70;99.90
33476;DHT22;19814;48.224;11.422;2023-04-03T00:03:19;3.70;99.90
33476;DHT22;19814;48.224;11.422;2023-04-03T00:05:46;3.60;99.90
33476;DHT22;19814;48.224;11.422;2023-04-03T00:08:11;3.70;99.90
33476;DHT22;19814;48.224;11.422;2023-04-03T00:10:37;3.90;99.90
33476;DHT22;19814;48.224;11.422;2023-04-03T00:13:04;3.90;99.90
33476;DHT22;19814;48.224;11.422;2023-04-03T00:15:29;3.90;99.90
33476;DHT22;19814;48.224;11.422;2023-04-03T00:17:55;3.90;99.90
33476;DHT22;19814;48.224;11.422;2023-04-03T00:20:21;3.90;99.90
33476;DHT22;19814;48.224;11.422;2023-04-03T00:22:46;3.90;99.90
33476;DHT22;19814;48.224;11.422;2023-04-03T00:25:12;3.90;99.90
33476;DHT22;19814;48.224;11.422;2023-04-03T00:27:38;3.90;99.90
33476;DHT22;19814;48.224;11.422;2023-04-03T00:30:06;3.90;99.90
33476;DHT22;19814;48.224;11.422;2023-04-03T00:32:32;3.90;99.90
33476;DHT22;19814;48.224;11.422;2023-04-03T00:34:58;3.90;99.90
33476;DHT22;19814;48.224;11.422;2023-04-03T00:37:24;4.00;99.90
33476;DHT22;19814;48.224;11.422;2023-04-03T00:39:49;4.00;99.90
33476;DHT22;19814;48.224;11.422;2023-04-03T00:42:15;4.10;99.90
33476;DHT22;19814;48.224;11.422;2023-04-03T00:47:09;4.20;99.90
33476;DHT22;19814;48.224;11.422;2023-04-03T00:49:37;4.10;99.90
33476;DHT22;19814;48.224;11.422;2023-04-03T00:52:06;4.10;99.90
33476;DHT22;19814;48.224;11.422;2023-04-03T00:54:35;4.20;99.90
33476;DHT22;19814;48.224;11.422;2023-04-03T00:57:02;4.00;99.90
33476;DHT22;19814;48.224;11.422;2023-04-03T00:59:33;4.00;99.90
33476;DHT22;19814;48.224;11.422;2023-04-03T01:02:00;4.00;99.90
33476;DHT22;19814;48.224;11.422;2023-04-03T01:04:42;4.00;99.90
33476;DHT22;19814;48.224;11.422;2023-04-03T01:07:11;4.00;99.90
33476;DHT22;19814;48.224;11.422;2023-04-03T01:09:38;4.00;99.90
33476;DHT22;19814;48.224;11.422;2023-04-03T01:12:18;4.10;99.90
33476;DHT22;19814;48.224;11.422;2023-04-03T01:14:45;4.10;99.90
33476;DHT22;19814;48.224;11.422;2023-04-03T01:23:12;4.00;99.90
33476;DHT22;19814;48.224;11.422;2023-04-03T01:25:54;4.10;99.90
33476;DHT22;19814;48.224;11.422;2023-04-03T01:28:21;4.10;99.90
33476;DHT22;19814;48.224;11.422;2023-04-03T01:30:53;4.10;99.90
33476;DHT22;19814;48.224;11.422;2023-04-03T01:33:20;4.10;99.90
33476;DHT22;19814;48.224;11.422;2023-04-03T01:35:46;4.10;99.90
33476;DHT22;19814;48.224;11.422;2023-04-03T01:38:11;4.10;99.90
33476;DHT22;19814;48.224;11.422;2023-04-03T01:40:37;4.10;99.90
33476;DHT22;19814;48.224;11.422;2023-04-03T01:43:02;4.00;99.90
33476;DHT22;19814;48.224;11.422;2023-04-03T01:45:28;4.00;99.90
33476;DHT22;19814;48.224;11.422;2023-04-03T01:47:54;4.00;99.90
33476;DHT22;19814;48.224;11.422;2023-04-03T01:50:19;3.90;99.90
33476;DHT22;19814;48.224;11.422;2023-04-03T01:52:45;3.90;99.90
33476;DHT22;19814;48.224;11.422;2023-04-03T01:55:10;4.00;99.90
33476;DHT22;19814;48.224;11.422;2023-04-03T01:57:36;4.00;99.90
33476;DHT22;19814;48.224;11.422;2023-04-03T02:00:03;4.10;99.90
33476;DHT22;19814;48.224;11.422;2023-04-03T02:02:28;4.10;99.90
33476;DHT22;19814;48.224;11.422;2023-04-03T02:04:54;4.10;99.90
33476;DHT22;19814;48.224;11.422;2023-04-03T02:07:20;4.20;99.90
33476;DHT22;19814;48.224;11.422;2023-04-03T02:09:45;4.20;99.90
33476;DHT22;19814;48.224;11.422;2023-04-03T02:12:11;4.20;99.90
33476;DHT22;19814;48.224;11.422;2023-04-03T02:14:36;4.20;99.90
33476;DHT22;19814;48.224;11.422;2023-04-03T02:17:02;4.20;99.90
33476;DHT22;19814;48.224;11.422;2023-04-03T02:19:36;4.10;99.90
33476;DHT22;19814;48.224;11.422;2023-04-03T02:22:05;4.20;99.90
33476;DHT22;19814;48.224;11.422;2023-04-03T02:24:31;4.10;99.90
33476;DHT22;19814;48.224;11.422;2023-04-03T02:26:57;4.20;99.90
33476;DHT22;19814;48.224;11.422;2023-04-03T02:29:23;4.20;99.90
33476;DHT22;19814;48.224;11.422;2023-04-03T02:31:49;4.30;99.90
33476;DHT22;19814;48.224;11.422;2023-04-03T02:34:14;4.30;99.90
33476;DHT22;19814;48.224;11.422;2023-04-03T02:36:40;4.30;99.90
33476;DHT22;19814;48.224;11.422;2023-04-03T02:39:05;4.30;99.90
33476;DHT22;19814;48.224;11.422;2023-04-03T02:41:31;4.30;99.90
33476;DHT22;19814;48.224;11.422;2023-04-03T02:44:04;4.20;99.90
33476;DHT22;19814;48.224;11.422;2023-04-03T02:46:30;4.20;99.90
33476;DHT22;19814;48.224;11.422;2023-04-03T02:48:56;4.20;99.90
33476;DHT22;19814;48.224;11.422;2023-04-03T02:51:22;4.20;99.90
33476;DHT22;19814;48.224;11.422;2023-04-03T02:53:48;4.10;99.90
33476;DHT22;19814;48.224;11.422;2023-04-03T02:56:14;4.10;99.90
33476;DHT22;19814;48.224;11.422;2023-04-03T02:58:40;4.20;99.90
33476;DHT22;19814;48.224;11.422;2023-04-03T03:01:05;4.20;99.90
33476;DHT22;19814;48.224;11.422;2023-04-03T03:03:31;4.20;99.90
33476;DHT22;19814;48.224;11.422;2023-04-03T03:06:08;4.10;99.90
33476;DHT22;19814;48.224;11.422;2023-04-03T03:08:35;4.20;99.90
33476;DHT22;19814;48.224;11.422;2023-04-03T03:11:01;4.20;99.90
33476;DHT22;19814;48.224;11.422;2023-04-03T03:13:26;4.10;99.90
33476;DHT22;19814;48.224;11.422;2023-04-03T03:15:52;4.20;99.90
33476;DHT22;19814;48.224;11.422;2023-04-03T03:18:18;4.10;99.90
33476;DHT22;19814;48.224;11.422;2023-04-03T03:20:44;4.10;99.90
33476;DHT22;19814;48.224;11.422;2023-04-03T03:23:09;4.10;99.90
33476;DHT22;19814;48.224;11.422;2023-04-03T03:25:40;4.10;99.90
33476;DHT22;19814;48.224;11.422;2023-04-03T03:28:06;4.00;99.90
33476;DHT22;19814;48.224;11.422;2023-04-03T03:30:31;3.90;99.90
33476;DHT22;19814;48.224;11.422;2023-04-03T03:32:57;3.90;99.90
33476;DHT22;19814;48.224;11.422;2023-04-03T03:35:22;3.90;99.90
33476;DHT22;19814;48.224;11.422;2023-04-03T03:37:48;3.80;99.90
33476;DHT22;19814;48.224;11.422;2023-04-03T03:40:13;3.90;99.90
33476;DHT22;19814;48.224;11.422;2023-04-03T03:42:39;3.80;99.90
33476;DHT22;19814;48.224;11.422;2023-04-03T03:45:06;3.80;99.90
33476;DHT22;19814;48.224;11.422;2023-04-03T03:47:33;3.90;99.90
33476;DHT22;19814;48.224;11.422;2023-04-03T03:49:58;4.00;99.90
33476;DHT22;19814;48.224;11.422;2023-04-03T03:52:25;4.00;99.90
33476;DHT22;19814;48.224;11.422;2023-04-03T03:54:51;3.90;99.90
33476;DHT22;19814;48.224;11.422;2023-04-03T03:57:16;4.00;99.90
33476;DHT22;19814;48.224;11.422;2023-04-03T03:59:42;4.00;99.90
33476;DHT22;19814;48.224;11.422;2023-04-03T04:02:10;4.00;99.90
33476;DHT22;19814;48.224;11.422;2023-04-03T04:04:36;4.00;99.90
33476;DHT22;19814;48.224;11.422;2023-04-03T04:07:02;4.00;99.90
33476;DHT22;19814;48.224;11.422;2023-04-03T04:09:27;4.10;99.90
33476;DHT22;19814;48.224;11.422;2023-04-03T04:11:53;4.10;99.90
33476;DHT22;19814;48.224;11.422;2023-04-03T04:14:19;4.10;99.90
33476;DHT22;19814;48.224;11.422;2023-04-03T04:16:46;4.10;99.90
33476;DHT22;19814;48.224;11.422;2023-04-03T04:19:12;4.20;99.90
33476;DHT22;19814;48.224;11.422;2023-04-03T04:21:37;4.20;99.90
33476;DHT22;19814;48.224;11.422;2023-04-03T04:24:03;4.10;99.90
33476;DHT22;19814;48.224;11.422;2023-04-03T04:26:29;4.10;99.90
33476;DHT22;19814;48.224;11.422;2023-04-03T04:28:55;4.00;99.90
33476;DHT22;19814;48.224;11.422;2023-04-03T04:31:20;4.10;99.90
33476;DHT22;19814;48.224;11.422;2023-04-03T04:33:46;4.00;99.90
33476;DHT22;19814;48.224;11.422;2023-04-03T04:36:11;4.10;99.90
33476;DHT22;19814;48.224;11.422;2023-04-03T04:38:37;4.10;99.90
33476;DHT22;19814;48.224;11.422;2023-04-03T04:41:03;4.00;99.90
33476;DHT22;19814;48.224;11.422;2023-04-03T04:43:29;4.10;99.90
33476;DHT22;19814;48.224;11.422;2023-04-03T04:46:09;4.10;99.90
33476;DHT22;19814;48.224;11.422;2023-04-03T04:48:37;4.10;99.90
33476;DHT22;19814;48.224;11.422;2023-04-03T04:51:03;4.20;99.90
33476;DHT22;19814;48.224;11.422;2023-04-03T04:53:29;4.10;99.90
33476;DHT22;19814;48.224;11.422;2023-04-03T04:55:55;4.00;99.90
33476;DHT22;19814;48.224;11.422;2023-04-03T04:58:21;4.00;99.90
33476;DHT22;19814;48.224;11.422;2023-04-03T05:00:46;4.10;99.90
33476;DHT22;19814;48.224;11.422;2023-04-03T05:03:12;4.10;99.90
33476;DHT22;19814;48.224;11.422;2023-04-03T05:05:38;4.20;99.90
33476;DHT22;19814;48.224;11.422;2023-04-03T05:08:05;4.20;99.90
33476;DHT22;19814;48.224;11.422;2023-04-03T05:10:31;4.10;99.90
33476;DHT22;19814;48.224;11.422;2023-04-03T05:12:57;4.10;99.90
33476;DHT22;19814;48.224;11.422;2023-04-03T05:15:23;4.20;99.90
33476;DHT22;19814;48.224;11.422;2023-04-03T05:17:48;4.10;99.90
33476;DHT22;19814;48.224;11.422;2023-04-03T05:20:14;4.10;99.90
33476;DHT22;19814;48.224;11.422;2023-04-03T05:22:40;4.10;99.90
33476;DHT22;19814;48.224;11.422;2023-04-03T05:25:06;4.00;99.90
33476;DHT22;19814;48.224;11.422;2023-04-03T05:27:32;3.80;99.90
33476;DHT22;19814;48.224;11.422;2023-04-03T05:29:57;3.80;99.90
33476;DHT22;19814;48.224;11.422;2023-04-03T05:32:24;3.90;99.90
33476;DHT22;19814;48.224;11.422;2023-04-03T05:34:50;4.00;99.90
33476;DHT22;19814;48.224;11.422;2023-04-03T05:37:17;4.00;99.90
33476;DHT22;19814;48.224;11.422;2023-04-03T05:39:42;4.00;99.90
33476;DHT22;19814;48.224;11.422;2023-04-03T05:42:08;4.00;99.90
33476;DHT22;19814;48.224;11.422;2023-04-03T05:44:33;4.00;99.90
33476;DHT22;19814;48.224;11.422;2023-04-03T05:46:59;4.10;99.90
33476;DHT22;19814;48.224;11.422;2023-04-03T05:49:25;4.10;99.90
33476;DHT22;19814;48.224;11.422;2023-04-03T05:51:50;4.20;99.90
33476;DHT22;19814;48.224;11.422;2023-04-03T05:54:23;4.20;99.90
33476;DHT22;19814;48.224;11.422;2023-04-03T05:56:50;4.30;99.90
33476;DHT22;19814;48.224;11.422;2023-04-03T05:59:16;4.30;99.90
33476;DHT22;19814;48.224;11.422;2023-04-03T06:01:42;4.30;99.90
33476;DHT22;19814;48.224;11.422;2023-04-03T06:04:08;4.40;99.90
33476;DHT22;19814;48.224;11.422;2023-04-03T06:07:03;4.40;99.90
33476;DHT22;19814;48.224;11.422;2023-04-03T06:09:29;4.50;99.90
33476;DHT22;19814;48.224;11.422;2023-04-03T06:11:55;4.50;99.90
33476;DHT22;19814;48.224;11.422;2023-04-03T06:14:21;4.50;99.90
33476;DHT22;19814;48.224;11.422;2023-04-03T06:16:47;4.60;99.90
33476;DHT22;19814;48.224;11.422;2023-04-03T06:19:13;4.50;99.90
33476;DHT22;19814;48.224;11.422;2023-04-03T06:21:38;4.40;99.90
33476;DHT22;19814;48.224;11.422;2023-04-03T06:24:05;4.50;99.90
33476;DHT22;19814;48.224;11.422;2023-04-03T06:26:31;4.50;99.90
33476;DHT22;19814;48.224;11.422;2023-04-03T06:28:57;4.30;99.90
33476;DHT22;19814;48.224;11.422;2023-04-03T06:31:22;4.40;99.90
33476;DHT22;19814;48.224;11.422;2023-04-03T06:33:48;4.40;99.90
33476;DHT22;19814;48.224;11.422;2023-04-03T06:36:13;4.40;99.90
33476;DHT22;19814;48.224;11.422;2023-04-03T06:38:39;4.40;99.90
33476;DHT22;19814;48.224;11.422;2023-04-03T06:41:05;4.40;99.90
33476;DHT22;19814;48.224;11.422;2023-04-03T06:43:31;4.40;99.90
33476;DHT22;19814;48.224;11.422;2023-04-03T06:45:57;4.50;99.90
33476;DHT22;19814;48.224;11.422;2023-04-03T06:48:23;4.60;99.90
33476;DHT22;19814;48.224;11.422;2023-04-03T06:50:48;4.70;99.90
33476;DHT22;19814;48.224;11.422;2023-04-03T06:53:14;4.90;99.90
33476;DHT22;19814;48.224;11.422;2023-04-03T06:55:40;5.00;99.90
33476;DHT22;19814;48.224;11.422;2023-04-03T06:58:06;5.10;99.90
33476;DHT22;19814;48.224;11.422;2023-04-03T07:00:32;5.00;99.90
33476;DHT22;19814;48.224;11.422;2023-04-03T07:02:58;5.00;99.90
33476;DHT22;19814;48.224;11.422;2023-04-03T07:05:26;5.00;99.90
33476;DHT22;19814;48.224;11.422;2023-04-03T07:07:53;5.20;99.90
33476;DHT22;19814;48.224;11.422;2023-04-03T07:10:18;5.30;99.90
33476;DHT22;19814;48.224;11.422;2023-04-03T07:12:44;5.50;99.90
33476;DHT22;19814;48.224;11.422;2023-04-03T07:15:11;5.70;99.90
33476;DHT22;19814;48.224;11.422;2023-04-03T07:17:38;5.80;99.90
33476;DHT22;19814;48.224;11.422;2023-04-03T07:20:04;5.90;99.90
33476;DHT22;19814;48.224;11.422;2023-04-03T07:22:30;5.70;99.90
33476;DHT22;19814;48.224;11.422;2023-04-03T07:24:56;5.50;99.90
33476;DHT22;19814;48.224;11.422;2023-04-03T07:27:21;5.50;99.90
33476;DHT22;19814;48.224;11.422;2023-04-03T07:29:47;5.70;99.90
33476;DHT22;19814;48.224;11.422;2023-04-03T07:32:14;5.70;99.90
33476;DHT22;19814;48.224;11.422;2023-04-03T07:34:40;5.80;99.90
33476;DHT22;19814;48.224;11.422;2023-04-03T07:37:06;5.70;99.90
33476;DHT22;19814;48.224;11.422;2023-04-03T07:39:32;5.70;99.90
33476;DHT22;19814;48.224;11.422;2023-04-03T07:41:58;5.80;99.90
33476;DHT22;19814;48.224;11.422;2023-04-03T07:44:24;5.90;99.90
33476;DHT22;19814;48.224;11.422;2023-04-03T07:46:49;6.00;99.90
33476;DHT22;19814;48.224;11.422;2023-04-03T07:49:16;6.00;99.90
33476;DHT22;19814;48.224;11.422;2023-04-03T07:51:43;5.70;99.80
33476;DHT22;19814;48.224;11.422;2023-04-03T07:54:09;5.30;99.90
33476;DHT22;19814;48.224;11.422;2023-04-03T07:56:35;5.40;99.90
33476;DHT22;19814;48.224;11.422;2023-04-03T07:59:00;5.70;99.90
33476;DHT22;19814;48.224;11.422;2023-04-03T08:01:26;5.80;99.90
33476;DHT22;19814;48.224;11.422;2023-04-03T08:03:51;6.00;99.90
33476;DHT22;19814;48.224;11.422;2023-04-03T08:06:17;6.20;99.90
33476;DHT22;19814;48.224;11.422;2023-04-03T08:08:43;6.30;99.90
33476;DHT22;19814;48.224;11.422;2023-04-03T08:11:10;6.40;99.90
33476;DHT22;19814;48.224;11.422;2023-04-03T08:13:35;6.50;99.60
33476;DHT22;19814;48.224;11.422;2023-04-03T08:16:12;6.40;98.90
33476;DHT22;19814;48.224;11.422;2023-04-03T08:18:38;6.10;98.90
33476;DHT22;19814;48.224;11.422;2023-04-03T08:21:09;5.90;99.70
33476;DHT22;19814;48.224;11.422;2023-04-03T08:23:34;6.00;99.40
33476;DHT22;19814;48.224;11.422;2023-04-03T08:26:09;6.00;99.70
33476;DHT22;19814;48.224;11.422;2023-04-03T08:28:34;6.10;98.50
33476;DHT22;19814;48.224;11.422;2023-04-03T08:31:05;5.80;98.40
33476;DHT22;19814;48.224;11.422;2023-04-03T08:33:31;5.80;99.00
33476;DHT22;19814;48.224;11.422;2023-04-03T08:35:57;5.80;99.10
33476;DHT22;19814;48.224;11.422;2023-04-03T08:38:23;5.90;99.60
33476;DHT22;19814;48.224;11.422;2023-04-03T08:41:04;6.10;99.30
33476;DHT22;19814;48.224;11.422;2023-04-03T08:43:56;6.20;99.70
33476;DHT22;19814;48.224;11.422;2023-04-03T08:46:26;6.40;99.80
33476;DHT22;19814;48.224;11.422;2023-04-03T08:48:58;6.50;98.60
33476;DHT22;19814;48.224;11.422;2023-04-03T08:51:26;6.50;99.00
33476;DHT22;19814;48.224;11.422;2023-04-03T08:54:03;6.60;99.00
33476;DHT22;19814;48.224;11.422;2023-04-03T08:56:31;6.80;98.30
33476;DHT22;19814;48.224;11.422;2023-04-03T08:59:04;6.80;98.30
33476;DHT22;19814;48.224;11.422;2023-04-03T09:01:35;6.80;98.80
33476;DHT22;19814;48.224;11.422;2023-04-03T09:04:09;6.80;98.20
33476;DHT22;19814;48.224;11.422;2023-04-03T09:06:36;6.70;97.50
33476;DHT22;19814;48.224;11.422;2023-04-03T09:09:13;6.70;97.90
33476;DHT22;19814;48.224;11.422;2023-04-03T09:14:57;6.70;97.50
33476;DHT22;19814;48.224;11.422;2023-04-03T09:17:35;6.70;97.20
33476;DHT22;19814;48.224;11.422;2023-04-03T09:22:58;6.70;97.40
33476;DHT22;19814;48.224;11.422;2023-04-03T09:25:36;6.70;96.30
33476;DHT22;19814;48.224;11.422;2023-04-03T09:28:03;6.30;97.60
33476;DHT22;19814;48.224;11.422;2023-04-03T09:30:34;6.30;97.80
33476;DHT22;19814;48.224;11.422;2023-04-03T09:33:00;6.30;97.50
33476;DHT22;19814;48.224;11.422;2023-04-03T09:35:32;6.20;96.70
33476;DHT22;19814;48.224;11.422;2023-04-03T09:38:16;6.10;98.20
33476;DHT22;19814;48.224;11.422;2023-04-03T09:40:44;6.10;98.30
33476;DHT22;19814;48.224;11.422;2023-04-03T09:45:43;6.20;97.10
33476;DHT22;19814;48.224;11.422;2023-04-03T09:48:17;6.10;97.40
33476;DHT22;19814;48.224;11.422;2023-04-03T09:51:03;5.90;97.50
33476;DHT22;19814;48.224;11.422;2023-04-03T09:53:40;5.90;97.90
33476;DHT22;19814;48.224;11.422;2023-04-03T09:58:44;6.30;98.60
33476;DHT22;19814;48.224;11.422;2023-04-03T10:04:10;6.70;97.60
33476;DHT22;19814;48.224;11.422;2023-04-03T10:06:56;6.80;98.00
33476;DHT22;19814;48.224;11.422;2023-04-03T10:12:06;7.20;98.10
33476;DHT22;19814;48.224;11.422;2023-04-03T10:14:34;7.20;97.20
33476;DHT22;19814;48.224;11.422;2023-04-03T10:20:33;7.00;96.00
33476;DHT22;19814;48.224;11.422;2023-04-03T10:23:17;6.60;96.30
33476;DHT22;19814;48.224;11.422;2023-04-03T10:28:52;5.90;96.40
33476;DHT22;19814;48.224;11.422;2023-04-03T10:34:33;5.70;98.70
33476;DHT22;19814;48.224;11.422;2023-04-03T10:37:23;5.80;97.60
33476;DHT22;19814;48.224;11.422;2023-04-03T10:48:11;5.80;98.20
33476;DHT22;19814;48.224;11.422;2023-04-03T10:50:49;5.90;97.40
33476;DHT22;19814;48.224;11.422;2023-04-03T10:56:16;5.70;97.70
33476;DHT22;19814;48.224;11.422;2023-04-03T11:05:01;5.90;96.50
33476;DHT22;19814;48.224;11.422;2023-04-03T11:07:32;6.20;96.30
33476;DHT22;19814;48.224;11.422;2023-04-03T11:13:11;6.60;96.80
33476;DHT22;19814;48.224;11.422;2023-04-03T11:15:37;6.70;94.80
33476;DHT22;19814;48.224;11.422;2023-04-03T11:18:14;6.60;94.60
33476;DHT22;19814;48.224;11.422;2023-04-03T11:20:43;6.60;93.80
33476;DHT22;19814;48.224;11.422;2023-04-03T11:23:34;6.50;94.30
33476;DHT22;19814;48.224;11.422;2023-04-03T11:26:30;6.60;93.70
33476;DHT22;19814;48.224;11.422;2023-04-03T11:29:11;6.70;94.30
33476;DHT22;19814;48.224;11.422;2023-04-03T11:34:35;6.80;94.40
33476;DHT22;19814;48.224;11.422;2023-04-03T11:37:10;6.60;93.90
33476;DHT22;19814;48.224;11.422;2023-04-03T11:39:38;6.40;94.30
33476;DHT22;19814;48.224;11.422;2023-04-03T11:44:41;6.30;91.40
33476;DHT22;19814;48.224;11.422;2023-04-03T11:47:08;6.20;92.20
33476;DHT22;19814;48.224;11.422;2023-04-03T11:50:02;6.10;90.70
33476;DHT22;19814;48.224;11.422;2023-04-03T12:13:35;8.60;86.30
33476;DHT22;19814;48.224;11.422;2023-04-03T12:16:02;8.80;89.90
33476;DHT22;19814;48.224;11.422;2023-04-03T12:18:48;9.40;83.80
33476;DHT22;19814;48.224;11.422;2023-04-03T12:29:58;13.40;74.70
33476;DHT22;19814;48.224;11.422;2023-04-03T12:37:51;12.40;70.70
33476;DHT22;19814;48.224;11.422;2023-04-03T12:40:24;11.90;69.00
33476;DHT22;19814;48.224;11.422;2023-04-03T12:43:07;11.00;72.30
33476;DHT22;19814;48.224;11.422;2023-04-03T12:48:54;10.80;72.40
33476;DHT22;19814;48.224;11.422;2023-04-03T12:51:42;10.90;74.40
33476;DHT22;19814;48.224;11.422;2023-04-03T12:54:30;11.00;72.10
33476;DHT22;19814;48.224;11.422;2023-04-03T12:57:17;11.00;72.70
33476;DHT22;19814;48.224;11.422;2023-04-03T12:59:43;11.00;75.50
33476;DHT22;19814;48.224;11.422;2023-04-03T13:04:45;11.40;75.50
33476;DHT22;19814;48.224;11.422;2023-04-03T13:07:23;11.80;73.10
33476;DHT22;19814;48.224;11.422;2023-04-03T13:12:32;11.10;69.00
33476;DHT22;19814;48.224;11.422;2023-04-03T13:15:02;10.80;72.10
33476;DHT22;19814;48.224;11.422;2023-04-03T13:17:30;10.30;68.60
33476;DHT22;19814;48.224;11.422;2023-04-03T13:20:13;10.30;71.60
33476;DHT22;19814;48.224;11.422;2023-04-03T13:25:17;10.10;73.40
33476;DHT22;19814;48.224;11.422;2023-04-03T13:27:45;10.30;74.40
33476;DHT22;19814;48.224;11.422;2023-04-03T13:30:32;10.40;73.80
33476;DHT22;19814;48.224;11.422;2023-04-03T13:33:01;9.90;70.20
33476;DHT22;19814;48.224;11.422;2023-04-03T13:35:34;8.80;72.90
33476;DHT22;19814;48.224;11.422;2023-04-03T13:38:05;8.60;73.30
33476;DHT22;19814;48.224;11.422;2023-04-03T13:40:31;8.40;76.10
33476;DHT22;19814;48.224;11.422;2023-04-03T13:43:05;8.50;75.30
33476;DHT22;19814;48.224;11.422;2023-04-03T13:45:33;8.60;75.50
33476;DHT22;19814;48.224;11.422;2023-04-03T13:48:17;8.70;74.30
33476;DHT22;19814;48.224;11.422;2023-04-03T13:50:59;8.40;73.20
33476;DHT22;19814;48.224;11.422;2023-04-03T13:53:26;8.40;76.20
33476;DHT22;19814;48.224;11.422;2023-04-03T13:56:08;8.40;73.90
33476;DHT22;19814;48.224;11.422;2023-04-03T13:58:36;8.60;72.40
33476;DHT22;19814;48.224;11.422;2023-04-03T14:01:17;8.60;74.50
33476;DHT22;19814;48.224;11.422;2023-04-03T14:03:52;8.60;70.40
33476;DHT22;19814;48.224;11.422;2023-04-03T14:06:19;8.40;70.20
33476;DHT22;19814;48.224;11.422;2023-04-03T14:08:45;8.50;71.80
33476;DHT22;19814;48.224;11.422;2023-04-03T14:11:17;8.60;70.80
33476;DHT22;19814;48.224;11.422;2023-04-03T14:13:45;8.70;70.00
33476;DHT22;19814;48.224;11.422;2023-04-03T14:16:19;8.80;68.60
33476;DHT22;19814;48.224;11.422;2023-04-03T14:18:46;8.70;70.40
33476;DHT22;19814;48.224;11.422;2023-04-03T14:21:15;9.00;69.60
33476;DHT22;19814;48.224;11.422;2023-04-03T14:23:41;9.40;71.70
33476;DHT22;19814;48.224;11.422;2023-04-03T14:26:13;9.70;73.50
33476;DHT22;19814;48.224;11.422;2023-04-03T14:28:42;9.90;71.40
33476;DHT22;19814;48.224;11.422;2023-04-03T14:31:10;9.80;68.30
33476;DHT22;19814;48.224;11.422;2023-04-03T14:33:36;9.60;69.60
33476;DHT22;19814;48.224;11.422;2023-04-03T14:36:12;9.60;72.00
33476;DHT22;19814;48.224;11.422;2023-04-03T14:38:38;9.70;72.00
33476;DHT22;19814;48.224;11.422;2023-04-03T14:41:03;9.60;68.50
33476;DHT22;19814;48.224;11.422;2023-04-03T14:43:29;9.60;69.30
33476;DHT22;19814;48.224;11.422;2023-04-03T14:45:54;9.60;69.40
33476;DHT22;19814;48.224;11.422;2023-04-03T14:48:25;9.70;69.80
33476;DHT22;19814;48.224;11.422;2023-04-03T14:50:52;10.00;70.80
33476;DHT22;19814;48.224;11.422;2023-04-03T14:53:19;9.70;65.70
33476;DHT22;19814;48.224;11.422;2023-04-03T14:55:48;9.40;66.90
33476;DHT22;19814;48.224;11.422;2023-04-03T14:58:15;9.50;68.20
33476;DHT22;19814;48.224;11.422;2023-04-03T15:00:42;9.70;69.40
33476;DHT22;19814;48.224;11.422;2023-04-03T15:03:21;9.60;63.80
33476;DHT22;19814;48.224;11.422;2023-04-03T15:05:48;9.10;65.10
33476;DHT22;19814;48.224;11.422;2023-04-03T15:08:23;8.80;65.50
33476;DHT22;19814;48.224;11.422;2023-04-03T15:10:49;8.50;64.90
33476;DHT22;19814;48.224;11.422;2023-04-03T15:13:18;8.50;66.40
33476;DHT22;19814;48.224;11.422;2023-04-03T15:15:44;8.50;65.70
33476;DHT22;19814;48.224;11.422;2023-04-03T15:18:19;8.40;64.00
33476;DHT22;19814;48.224;11.422;2023-04-03T15:20:45;8.40;68.30
33476;DHT22;19814;48.224;11.422;2023-04-03T15:23:12;8.60;65.90
33476;DHT22;19814;48.224;11.422;2023-04-03T15:25:39;8.60;65.20
33476;DHT22;19814;48.224;11.422;2023-04-03T15:28:05;8.50;63.50
33476;DHT22;19814;48.224;11.422;2023-04-03T15:30:31;8.60;65.70
33476;DHT22;19814;48.224;11.422;2023-04-03T15:32:57;8.60;66.10
33476;DHT22;19814;48.224;11.422;2023-04-03T15:35:22;8.60;64.80
33476;DHT22;19814;48.224;11.422;2023-04-03T15:37:48;8.80;63.10
33476;DHT22;19814;48.224;11.422;2023-04-03T15:40:14;8.50;63.10
33476;DHT22;19814;48.224;11.422;2023-04-03T15:42:40;8.60;65.90
33476;DHT22;19814;48.224;11.422;2023-04-03T15:45:06;8.50;66.80
33476;DHT22;19814;48.224;11.422;2023-04-03T15:47:32;8.40;62.80
33476;DHT22;19814;48.224;11.422;2023-04-03T15:49:58;8.00;62.40
33476;DHT22;19814;48.224;11.422;2023-04-03T15:52:23;7.80;62.90
33476;DHT22;19814;48.224;11.422;2023-04-03T15:54:49;7.60;65.50
33476;DHT22;19814;48.224;11.422;2023-04-03T15:57:14;7.50;65.80
33476;DHT22;19814;48.224;11.422;2023-04-03T15:59:40;7.50;66.90
33476;DHT22;19814;48.224;11.422;2023-04-03T16:02:07;7.60;62.80
33476;DHT22;19814;48.224;11.422;2023-04-03T16:04:34;7.70;65.60
33476;DHT22;19814;48.224;11.422;2023-04-03T16:07:04;7.70;62.50
33476;DHT22;19814;48.224;11.422;2023-04-03T16:09:31;7.60;66.80
33476;DHT22;19814;48.224;11.422;2023-04-03T16:11:57;7.60;67.00
33476;DHT22;19814;48.224;11.422;2023-04-03T16:14:23;7.60;69.30
33476;DHT22;19814;48.224;11.422;2023-04-03T16:16:48;7.60;69.10
33476;DHT22;19814;48.224;11.422;2023-04-03T16:19:14;7.60;67.30
33476;DHT22;19814;48.224;11.422;2023-04-03T16:21:39;7.60;67.50
33476;DHT22;19814;48.224;11.422;2023-04-03T16:24:05;7.70;66.70
33476;DHT22;19814;48.224;11.422;2023-04-03T16:26:31;7.70;66.90
33476;DHT22;19814;48.224;11.422;2023-04-03T16:28:57;7.60;66.50
33476;DHT22;19814;48.224;11.422;2023-04-03T16:31:23;7.40;67.40
33476;DHT22;19814;48.224;11.422;2023-04-03T16:33:50;7.40;66.80
33476;DHT22;19814;48.224;11.422;2023-04-03T16:36:16;7.40;65.80
33476;DHT22;19814;48.224;11.422;2023-04-03T16:38:41;7.30;67.30
33476;DHT22;19814;48.224;11.422;2023-04-03T16:41:07;7.20;66.40
33476;DHT22;19814;48.224;11.422;2023-04-03T16:43:33;7.10;65.90
33476;DHT22;19814;48.224;11.422;2023-04-03T16:46:01;7.20;67.20
33476;DHT22;19814;48.224;11.422;2023-04-03T16:48:28;7.10;67.20
33476;DHT22;19814;48.224;11.422;2023-04-03T16:50:53;7.10;67.90
33476;DHT22;19814;48.224;11.422;2023-04-03T16:53:20;7.00;67.80
33476;DHT22;19814;48.224;11.422;2023-04-03T16:55:46;6.90;67.80
33476;DHT22;19814;48.224;11.422;2023-04-03T16:58:11;6.80;68.80
33476;DHT22;19814;48.224;11.422;2023-04-03T17:00:37;6.80;67.90
33476;DHT22;19814;48.224;11.422;2023-04-03T17:03:03;6.70;68.20
33476;DHT22;19814;48.224;11.422;2023-04-03T17:05:29;6.60;68.70
33476;DHT22;19814;48.224;11.422;2023-04-03T17:07:54;6.40;67.50
33476;DHT22;19814;48.224;11.422;2023-04-03T17:10:20;6.20;66.80
33476;DHT22;19814;48.224;11.422;2023-04-03T17:12:45;6.10;67.00
33476;DHT22;19814;48.224;11.422;2023-04-03T17:15:11;6.00;68.20
33476;DHT22;19814;48.224;11.422;2023-04-03T17:17:36;5.90;68.00
33476;DHT22;19814;48.224;11.422;2023-04-03T17:20:03;5.90;69.50
33476;DHT22;19814;48.224;11.422;2023-04-03T17:22:29;5.80;70.80
33476;DHT22;19814;48.224;11.422;2023-04-03T17:24:54;5.60;71.40